createdAt,value
2022-11-25T00:00:56.000Z,4.8
2022-11-25T00:02:09.000Z,4.5
2022-11-25T00:03:21.000Z,1.2
2022-11-25T00:04:07.092Z,3.2
2022-11-25T00:04:33.000Z,4.1
2022-11-25T00:05:45.000Z,3.2
2022-11-25T00:06:57.000Z,5.1
2022-11-25T00:08:10.000Z,4.5
2022-11-25T00:09:22.000Z,4.1
2022-11-25T00:10:34.000Z,4.1
2022-11-25T00:11:46.000Z,-0.7
2022-11-25T00:12:58.000Z,3.5
2022-11-25T00:14:09.000Z,4.1
2022-11-25T00:15:22.000Z,-0.7
2022-11-25T00:16:34.000Z,4.1
2022-11-25T00:17:46.000Z,4.8
2022-11-25T00:18:58.000Z,4.1
2022-11-25T00:20:10.000Z,3.8
2022-11-25T00:21:22.000Z,4.1
2022-11-25T00:22:34.000Z,4.1
2022-11-25T00:23:46.000Z,8
2022-11-25T00:24:58.000Z,8.3
2022-11-25T00:26:10.000Z,2.5
2022-11-25T00:27:23.000Z,3.8
2022-11-25T00:28:35.000Z,3.8
2022-11-25T00:29:47.000Z,1.2
2022-11-25T00:30:59.000Z,8
2022-11-25T00:32:11.000Z,5.1
2022-11-25T00:33:23.000Z,7
2022-11-25T00:34:36.000Z,2.2
2022-11-25T00:35:48.000Z,3.8
2022-11-25T00:37:00.000Z,4.1
2022-11-25T00:38:12.000Z,3.8
2022-11-25T00:39:23.000Z,0.3
2022-11-25T00:40:36.000Z,3.8
2022-11-25T00:41:48.000Z,-1.7
2022-11-25T00:43:00.000Z,3.8
2022-11-25T00:44:12.000Z,3.5
2022-11-25T00:45:24.000Z,-0.7
2022-11-25T00:46:37.000Z,-1.3
2022-11-25T00:47:49.000Z,3.5
2022-11-25T00:49:01.000Z,8.3
2022-11-25T00:50:13.000Z,9.3
2022-11-25T00:51:25.000Z,3.5
2022-11-25T00:52:37.000Z,8.7
2022-11-25T00:53:50.000Z,4.1
2022-11-25T00:55:01.000Z,3.5
2022-11-25T00:56:13.000Z,4.5
2022-11-25T00:57:25.000Z,3.2
2022-11-25T00:58:37.000Z,7.7
2022-11-25T00:59:50.000Z,6.7
2022-11-25T01:01:02.000Z,3.8
2022-11-25T01:02:14.000Z,3.5
2022-11-25T01:03:26.000Z,-0.4
2022-11-25T01:04:38.000Z,3.2
2022-11-25T01:05:50.000Z,7.4
2022-11-25T01:07:03.000Z,6.7
2022-11-25T01:08:15.000Z,7.4
2022-11-25T01:09:27.000Z,6.7
2022-11-25T01:10:38.000Z,3.2
2022-11-25T01:11:50.000Z,2.9
2022-11-25T01:13:03.000Z,2.9
2022-11-25T01:14:15.000Z,2.5
2022-11-25T01:15:27.000Z,0.6
2022-11-25T01:16:39.000Z,-1
2022-11-25T01:17:51.000Z,3.2
2022-11-25T01:19:04.000Z,1.9
2022-11-25T01:20:16.000Z,3.2
2022-11-25T01:21:28.000Z,-1
2022-11-25T01:22:40.000Z,8.3
2022-11-25T01:23:52.000Z,2.9
2022-11-25T01:25:04.000Z,-0.7
2022-11-25T01:26:16.000Z,0.3
2022-11-25T01:27:28.000Z,2.9
2022-11-25T01:28:40.000Z,4.5
2022-11-25T01:29:52.000Z,0.6
2022-11-25T01:31:04.000Z,2.5
2022-11-25T01:32:17.000Z,2.9
2022-11-25T01:33:29.000Z,-2
2022-11-25T01:34:41.000Z,0
2022-11-25T01:35:53.000Z,-2.6
2022-11-25T01:37:05.000Z,1.9
2022-11-25T01:38:17.000Z,3.2
2022-11-25T01:39:30.000Z,0
2022-11-25T01:40:42.000Z,2.2
2022-11-25T01:41:53.000Z,4.1
2022-11-25T01:43:05.000Z,6.4
2022-11-25T01:44:17.000Z,3.8
2022-11-25T01:45:30.000Z,3.2
2022-11-25T01:46:42.000Z,2.5
2022-11-25T01:47:54.000Z,-1
2022-11-25T01:49:06.000Z,2.9
2022-11-25T01:50:18.000Z,2.5
2022-11-25T01:51:31.000Z,2.9
2022-11-25T01:52:43.000Z,2.9
2022-11-25T01:53:55.000Z,6.1
2022-11-25T01:55:07.000Z,1.9
2022-11-25T01:56:19.000Z,-0.7
2022-11-25T01:57:30.000Z,2.5
2022-11-25T01:58:43.000Z,3.2
2022-11-25T01:59:55.000Z,2.9
2022-11-25T02:01:07.000Z,2.2
2022-11-25T02:02:19.000Z,2.5
2022-11-25T02:03:31.000Z,2.9
2022-11-25T02:04:44.000Z,2.5
2022-11-25T02:05:56.000Z,2.5
2022-11-25T02:07:08.000Z,8.7
2022-11-25T02:08:20.000Z,2.9
2022-11-25T02:09:32.000Z,2.2
2022-11-25T02:10:44.000Z,1.6
2022-11-25T02:11:57.000Z,2.5
2022-11-25T02:13:08.000Z,2.5
2022-11-25T02:14:20.000Z,2.2
2022-11-25T02:15:32.000Z,2.5
2022-11-25T02:16:44.000Z,2.2
2022-11-25T02:17:57.000Z,3.2
2022-11-25T02:19:09.000Z,2.5
2022-11-25T02:20:21.000Z,-0.7
2022-11-25T02:21:33.000Z,5.8
2022-11-25T02:22:45.000Z,2.2
2022-11-25T02:23:58.000Z,2.2
2022-11-25T02:25:10.000Z,-0.7
2022-11-25T02:26:22.000Z,2.5
2022-11-25T02:27:34.000Z,1.9
2022-11-25T02:28:45.000Z,5.1
2022-11-25T02:29:57.000Z,1.9
2022-11-25T02:31:10.000Z,4.5
2022-11-25T02:32:22.000Z,0.9
2022-11-25T02:33:34.000Z,1.9
2022-11-25T02:34:46.000Z,1.9
2022-11-25T02:35:58.000Z,2.2
2022-11-25T02:37:11.000Z,2.2
2022-11-25T02:38:23.000Z,2.5
2022-11-25T02:39:35.000Z,1.6
2022-11-25T02:40:47.000Z,0.6
2022-11-25T02:41:59.000Z,1.9
2022-11-25T02:43:12.000Z,2.2
2022-11-25T02:44:23.000Z,-0.7
2022-11-25T02:45:35.000Z,-1.3
2022-11-25T02:46:47.000Z,2.2
2022-11-25T02:47:59.000Z,0.9
2022-11-25T02:49:11.000Z,-2
2022-11-25T02:50:24.000Z,-0.7
2022-11-25T02:51:36.000Z,1.6
2022-11-25T02:52:48.000Z,-2
2022-11-25T02:54:00.000Z,1.9
2022-11-25T02:55:12.000Z,0
2022-11-25T02:56:25.000Z,2.5
2022-11-25T02:57:37.000Z,0.9
2022-11-25T02:58:49.000Z,4.8
2022-11-25T03:00:00.000Z,1.9
2022-11-25T03:01:12.000Z,3.2
2022-11-25T03:02:24.000Z,0.9
2022-11-25T03:03:37.000Z,1.2
2022-11-25T03:04:49.000Z,4.5
2022-11-25T03:06:01.000Z,1.6
2022-11-25T03:07:13.000Z,4.1
2022-11-25T03:08:25.000Z,4.1
2022-11-25T03:09:38.000Z,1.9
2022-11-25T03:10:50.000Z,1.6
2022-11-25T03:12:02.000Z,0.9
2022-11-25T03:13:14.000Z,2.2
2022-11-25T03:14:26.000Z,0
2022-11-25T03:15:38.000Z,1.2
2022-11-25T03:16:50.000Z,2.2
2022-11-25T03:18:02.000Z,4.8
2022-11-25T03:20:26.000Z,2.2
2022-11-25T03:21:38.000Z,1.2
2022-11-25T03:22:51.000Z,1.2
2022-11-25T03:24:03.000Z,1.2
2022-11-25T03:25:15.000Z,1.6
2022-11-25T03:26:00.398Z,0.6
2022-11-25T03:26:27.000Z,4.1
2022-11-25T03:27:39.000Z,1.2
2022-11-25T03:28:52.000Z,-1.7
2022-11-25T03:30:04.000Z,1.6
2022-11-25T03:31:15.000Z,-1.3
2022-11-25T03:32:27.000Z,1.6
2022-11-25T03:33:39.000Z,1.9
2022-11-25T03:34:51.000Z,-1
2022-11-25T03:36:04.000Z,-1.7
2022-11-25T03:37:16.000Z,0.9
2022-11-25T03:38:28.000Z,-1.3
2022-11-25T03:39:40.000Z,1.2
2022-11-25T03:40:52.000Z,2.2
2022-11-25T03:42:05.000Z,3.5
2022-11-25T03:43:17.000Z,3.5
2022-11-25T03:44:29.000Z,1.6
2022-11-25T03:45:41.000Z,0.9
2022-11-25T03:46:52.000Z,1.6
2022-11-25T03:48:05.000Z,-1
2022-11-25T03:49:17.000Z,-0.7
2022-11-25T03:50:29.000Z,4.5
2022-11-25T03:51:41.000Z,2.9
2022-11-25T03:52:53.000Z,0.3
2022-11-25T03:55:18.000Z,1.2
2022-11-25T03:56:30.000Z,4.1
2022-11-25T03:57:42.000Z,3.8
2022-11-25T03:58:54.000Z,2.2
2022-11-25T04:00:06.000Z,-0.7
2022-11-25T04:00:51.794Z,-1.3
2022-11-25T04:01:19.000Z,1.2
2022-11-25T04:02:30.000Z,3.5
2022-11-25T04:03:42.000Z,1.2
2022-11-25T04:04:54.000Z,1.6
2022-11-25T04:06:06.000Z,1.2
2022-11-25T04:07:18.000Z,0.6
2022-11-25T04:08:31.000Z,-1.3
2022-11-25T04:09:43.000Z,1.9
2022-11-25T04:10:55.000Z,4.1
2022-11-25T04:12:07.000Z,1.2
2022-11-25T04:13:19.000Z,0.3
2022-11-25T04:14:32.000Z,-1
2022-11-25T04:15:44.000Z,0.9
2022-11-25T04:16:56.000Z,1.2
2022-11-25T04:18:07.000Z,1.2
2022-11-25T04:19:19.000Z,1.2
2022-11-25T04:20:32.000Z,1.6
2022-11-25T04:21:44.000Z,0.6
2022-11-25T04:22:55.000Z,3.5
2022-11-25T04:24:07.000Z,3.5
2022-11-25T04:25:19.000Z,4.1
2022-11-25T04:26:31.000Z,0.6
2022-11-25T04:27:44.000Z,0.9
2022-11-25T04:28:56.000Z,3.5
2022-11-25T04:30:08.000Z,0.9
2022-11-25T04:31:20.000Z,1.2
2022-11-25T04:32:32.000Z,-1.3
2022-11-25T04:33:45.000Z,0
2022-11-25T04:34:57.000Z,1.2
2022-11-25T04:36:09.000Z,0.9
2022-11-25T04:37:21.000Z,0
2022-11-25T04:38:32.000Z,2.9
2022-11-25T04:39:45.000Z,0.6
2022-11-25T04:40:57.000Z,-1.3
2022-11-25T04:42:09.000Z,1.2
2022-11-25T04:44:33.000Z,2.9
2022-11-25T04:45:45.000Z,0.6
2022-11-25T04:46:58.000Z,0.6
2022-11-25T04:48:10.000Z,0.6
2022-11-25T04:49:22.000Z,0.6
2022-11-25T04:50:07.443Z,1.2
2022-11-25T04:50:34.000Z,0.9
2022-11-25T04:51:46.000Z,1.2
2022-11-25T04:52:59.000Z,1.2
2022-11-25T04:54:11.000Z,0.9
2022-11-25T04:55:22.000Z,-1.3
2022-11-25T04:56:34.000Z,2.9
2022-11-25T04:57:46.000Z,0.9
2022-11-25T04:58:58.000Z,1.2
2022-11-25T05:00:11.000Z,1.2
2022-11-25T05:01:23.000Z,0.6
2022-11-25T05:02:35.000Z,0.3
2022-11-25T05:03:47.000Z,-0.7
2022-11-25T05:04:59.000Z,2.5
2022-11-25T05:06:12.000Z,-0.7
2022-11-25T05:07:24.000Z,-1
2022-11-25T05:08:36.000Z,-0.4
2022-11-25T05:09:48.000Z,3.8
2022-11-25T05:10:59.000Z,0.9
2022-11-25T05:12:12.000Z,0.6
2022-11-25T05:13:24.000Z,2.9
2022-11-25T05:14:36.000Z,2.2
2022-11-25T05:15:48.000Z,0.6
2022-11-25T05:17:00.000Z,0.6
2022-11-25T05:18:12.000Z,2.2
2022-11-25T05:19:25.000Z,0.9
2022-11-25T05:20:37.000Z,0
2022-11-25T05:21:49.000Z,0.6
2022-11-25T05:23:01.000Z,-1.3
2022-11-25T05:24:13.000Z,3.2
2022-11-25T05:25:26.000Z,0.3
2022-11-25T05:26:37.000Z,1.6
2022-11-25T05:27:49.000Z,-3.3
2022-11-25T05:29:01.000Z,0.9
2022-11-25T05:30:13.000Z,0.3
2022-11-25T05:31:25.000Z,-2.6
2022-11-25T05:32:38.000Z,0
2022-11-25T05:33:50.000Z,-1.3
2022-11-25T05:35:02.000Z,1.2
2022-11-25T05:36:14.000Z,1.6
2022-11-25T05:37:26.000Z,0.3
2022-11-25T05:38:39.000Z,-1
2022-11-25T05:39:51.000Z,0.6
2022-11-25T05:41:03.000Z,-1
2022-11-25T05:42:14.000Z,0.6
2022-11-25T05:43:26.000Z,0.6
2022-11-25T05:44:39.000Z,0.9
2022-11-25T05:45:51.000Z,0.6
2022-11-25T05:47:03.000Z,0.6
2022-11-25T05:48:15.000Z,2.9
2022-11-25T05:49:27.000Z,1.9
2022-11-25T05:50:39.000Z,0
2022-11-25T05:51:52.000Z,-1.7
2022-11-25T05:53:04.000Z,1.6
2022-11-25T05:54:16.000Z,0.6
2022-11-25T05:55:28.000Z,0.3
2022-11-25T05:56:40.000Z,0.6
2022-11-25T05:57:52.000Z,0.6
2022-11-25T05:59:04.000Z,0.6
2022-11-25T06:00:16.000Z,0.9
2022-11-25T06:01:28.000Z,0.6
2022-11-25T06:02:40.000Z,-3.3
2022-11-25T06:03:53.000Z,-1.7
2022-11-25T06:05:05.000Z,0.6
2022-11-25T06:06:17.000Z,0.3
2022-11-25T06:07:29.000Z,2.2
2022-11-25T06:08:41.000Z,0.9
2022-11-25T06:09:53.000Z,-3.3
2022-11-25T06:11:06.000Z,0.9
2022-11-25T06:12:18.000Z,0.6
2022-11-25T06:13:29.000Z,0.3
2022-11-25T06:14:41.000Z,0.9
2022-11-25T06:15:53.000Z,-1.7
2022-11-25T06:17:06.000Z,0.6
2022-11-25T06:18:18.000Z,0.6
2022-11-25T06:19:30.000Z,0.3
2022-11-25T06:20:42.000Z,0
2022-11-25T06:21:54.000Z,-1
2022-11-25T06:23:07.000Z,0.3
2022-11-25T06:24:19.000Z,0.6
2022-11-25T06:26:43.000Z,0.3
2022-11-25T06:27:55.000Z,0.6
2022-11-25T06:29:06.000Z,-1
2022-11-25T06:30:19.000Z,0.9
2022-11-25T06:31:31.000Z,0.6
2022-11-25T06:32:17.332Z,0
2022-11-25T06:32:43.000Z,0.3
2022-11-25T06:33:55.000Z,0.6
2022-11-25T06:35:07.000Z,1.9
2022-11-25T06:36:20.000Z,0.6
2022-11-25T06:37:32.000Z,-0.7
2022-11-25T06:38:44.000Z,1.2
2022-11-25T06:39:56.000Z,0.9
2022-11-25T06:41:08.000Z,1.2
2022-11-25T06:42:21.000Z,0.6
2022-11-25T06:43:33.000Z,1.6
2022-11-25T06:44:44.000Z,-0.7
2022-11-25T06:45:56.000Z,0.3
2022-11-25T06:47:08.000Z,0.6
2022-11-25T06:48:20.000Z,1.2
2022-11-25T06:49:33.000Z,0.9
2022-11-25T06:50:45.000Z,2.9
2022-11-25T06:51:57.000Z,0.6
2022-11-25T06:53:09.000Z,0.9
2022-11-25T06:54:21.000Z,2.9
2022-11-25T06:55:34.000Z,2.2
2022-11-25T06:56:46.000Z,0.6
2022-11-25T06:57:58.000Z,0.6
2022-11-25T06:59:10.000Z,2.5
2022-11-25T07:00:22.000Z,0.9
2022-11-25T07:01:34.000Z,1.2
2022-11-25T07:02:46.000Z,0.3
2022-11-25T07:03:58.000Z,0.9
2022-11-25T07:05:10.000Z,1.6
2022-11-25T07:06:22.000Z,0.9
2022-11-25T07:07:34.000Z,0.9
2022-11-25T07:09:59.000Z,0.9
2022-11-25T07:11:11.000Z,1.2
2022-11-25T07:12:23.000Z,1.6
2022-11-25T07:13:35.000Z,0.6
2022-11-25T07:15:33.092Z,1.2
2022-11-25T07:16:00.000Z,0.9
2022-11-25T07:17:11.000Z,0.9
2022-11-25T07:18:23.000Z,2.5
2022-11-25T07:19:35.000Z,0.9
2022-11-25T07:20:47.000Z,1.6
2022-11-25T07:21:34.017Z,-0.4
2022-11-25T07:22:00.000Z,0
2022-11-25T07:23:12.000Z,3.2
2022-11-25T07:24:24.000Z,1.2
2022-11-25T07:25:36.000Z,3.5
2022-11-25T07:26:48.000Z,3.5
2022-11-25T07:28:01.000Z,-0.4
2022-11-25T07:29:13.000Z,1.2
2022-11-25T07:30:25.000Z,1.2
2022-11-25T07:31:37.000Z,1.2
2022-11-25T07:32:48.000Z,-0.7
2022-11-25T07:34:01.000Z,1.6
2022-11-25T07:35:13.000Z,3.2
2022-11-25T07:36:25.000Z,2.5
2022-11-25T07:37:37.000Z,1.2
2022-11-25T07:38:49.000Z,1.2
2022-11-25T07:40:01.000Z,0.9
2022-11-25T07:41:14.000Z,1.6
2022-11-25T07:42:26.000Z,1.6
2022-11-25T07:43:38.000Z,4.1
2022-11-25T07:44:50.000Z,-0.7
2022-11-25T07:46:02.000Z,0
2022-11-25T07:47:15.000Z,1.2
2022-11-25T07:48:26.000Z,1.6
2022-11-25T07:49:38.000Z,1.2
2022-11-25T07:50:50.000Z,-0.7
2022-11-25T07:52:02.000Z,1.2
2022-11-25T07:59:15.000Z,3.5
2022-11-25T08:00:27.000Z,-0.7
2022-11-25T08:02:49.000Z,2.9
2022-11-25T08:04:00.000Z,1.9
2022-11-25T08:05:11.000Z,1.6
2022-11-25T08:06:23.000Z,2.5
2022-11-25T08:07:34.000Z,1.9
2022-11-25T08:08:24.000Z,-1
2022-11-25T08:08:45.000Z,2.2
2022-11-25T08:09:57.000Z,1.6
2022-11-25T08:11:09.000Z,1.9
2022-11-25T08:12:22.000Z,0.9
2022-11-25T08:13:34.000Z,0.6
2022-11-25T08:14:46.000Z,-1
2022-11-25T08:15:58.000Z,1.6
2022-11-25T08:17:10.000Z,2.2
2022-11-25T08:18:23.000Z,1.6
2022-11-25T08:19:35.000Z,1.9
2022-11-25T08:20:46.000Z,1.9
2022-11-25T08:21:57.000Z,3.5
2022-11-25T08:23:09.000Z,1.9
2022-11-25T08:24:21.000Z,2.2
2022-11-25T08:25:33.000Z,3.8
2022-11-25T08:26:45.000Z,1.9
2022-11-25T08:27:57.000Z,2.5
2022-11-25T08:29:09.000Z,1.2
2022-11-25T08:30:22.000Z,2.2
2022-11-25T08:31:34.000Z,1.9
2022-11-25T08:32:46.000Z,2.2
2022-11-25T08:33:58.000Z,2.2
2022-11-25T08:35:10.000Z,3.5
2022-11-25T08:36:22.000Z,2.2
2022-11-25T08:37:35.000Z,2.5
2022-11-25T08:38:47.000Z,1.9
2022-11-25T08:39:58.000Z,4.1
2022-11-25T08:41:10.000Z,0.6
2022-11-25T08:42:22.000Z,3.8
2022-11-25T08:43:35.000Z,2.5
2022-11-25T08:44:47.000Z,2.2
2022-11-25T08:45:58.000Z,2.5
2022-11-25T08:47:09.000Z,2.2
2022-11-25T08:48:20.000Z,2.5
2022-11-25T08:49:32.000Z,4.1
2022-11-25T08:50:44.000Z,2.5
2022-11-25T08:51:56.000Z,2.9
2022-11-25T08:53:08.000Z,2.5
2022-11-25T08:55:32.000Z,2.2
2022-11-25T08:56:45.000Z,3.5
2022-11-25T08:57:57.000Z,0.9
2022-11-25T08:59:09.000Z,2.2
2022-11-25T09:00:21.000Z,1.2
2022-11-25T09:01:06.833Z,4.8
2022-11-25T09:01:33.000Z,2.5
2022-11-25T09:02:46.000Z,0.3
2022-11-25T09:03:58.000Z,2.2
2022-11-25T09:05:10.000Z,4.8
2022-11-25T09:06:21.000Z,1.6
2022-11-25T09:07:33.000Z,2.9
2022-11-25T09:08:46.000Z,3.2
2022-11-25T09:09:58.000Z,5.1
2022-11-25T09:12:22.000Z,2.9
2022-11-25T09:13:33.000Z,2.5
2022-11-25T09:14:45.000Z,2.9
2022-11-25T09:15:57.000Z,2.9
2022-11-25T09:17:09.000Z,1.2
2022-11-25T09:17:56.452Z,4.8
2022-11-25T09:18:21.000Z,2.5
2022-11-25T09:19:33.000Z,3.8
2022-11-25T09:20:45.000Z,2.5
2022-11-25T09:21:58.000Z,2.9
2022-11-25T09:23:10.000Z,2.9
2022-11-25T09:24:22.000Z,5.1
2022-11-25T09:25:34.000Z,3.5
2022-11-25T09:26:46.000Z,2.9
2022-11-25T09:27:59.000Z,3.2
2022-11-25T09:29:11.000Z,4.1
2022-11-25T09:30:22.000Z,2.9
2022-11-25T09:31:34.000Z,5.4
2022-11-25T09:32:46.000Z,1.2
2022-11-25T09:33:59.000Z,3.2
2022-11-25T09:35:11.000Z,1.9
2022-11-25T09:36:23.000Z,2.5
2022-11-25T09:37:35.000Z,3.5
2022-11-25T09:38:46.000Z,3.2
2022-11-25T09:39:57.000Z,3.2
2022-11-25T09:41:09.000Z,1.2
2022-11-25T09:42:20.000Z,3.2
2022-11-25T09:43:32.000Z,3.2
2022-11-25T09:44:44.000Z,3.5
2022-11-25T09:45:56.000Z,5.4
2022-11-25T09:47:09.000Z,5.4
2022-11-25T09:48:21.000Z,3.5
2022-11-25T09:49:33.000Z,2.9
2022-11-25T09:50:45.000Z,4.5
2022-11-25T09:51:57.000Z,3.5
2022-11-25T09:53:10.000Z,3.5
2022-11-25T09:54:22.000Z,4.1
2022-11-25T09:55:34.000Z,3.5
2022-11-25T09:57:57.000Z,6.4
2022-11-25T09:59:09.000Z,3.5
2022-11-25T10:01:34.000Z,1.9
2022-11-25T10:02:46.000Z,5.1
2022-11-25T10:03:32.663Z,3.5
2022-11-25T10:03:58.000Z,4.1
2022-11-25T10:05:10.000Z,4.1
2022-11-25T10:06:22.000Z,4.1
2022-11-25T10:07:08.244Z,5.4
2022-11-25T10:07:33.000Z,4.8
2022-11-25T10:09:57.000Z,4.5
2022-11-25T10:11:09.000Z,6.4
2022-11-25T10:12:22.000Z,4.1
2022-11-25T10:13:34.000Z,4.1
2022-11-25T10:14:46.000Z,2.9
2022-11-25T10:15:31.000Z,3.5
2022-11-25T10:15:58.000Z,4.5
2022-11-25T10:18:23.000Z,2.9
2022-11-25T10:19:35.000Z,4.8
2022-11-25T10:20:47.000Z,2.5
2022-11-25T10:21:59.000Z,4.5
2022-11-25T10:23:10.000Z,4.1
2022-11-25T10:23:56.901Z,4.5
2022-11-25T10:24:22.000Z,4.5
2022-11-25T10:25:35.000Z,4.8
2022-11-25T10:26:47.000Z,4.8
2022-11-25T10:27:59.000Z,6.7
2022-11-25T10:29:11.000Z,4.8
2022-11-25T10:30:23.000Z,4.8
2022-11-25T10:31:35.000Z,7
2022-11-25T10:32:46.000Z,4.8
2022-11-25T10:33:57.000Z,4.8
2022-11-25T10:35:08.000Z,4.1
2022-11-25T10:36:20.000Z,4.5
2022-11-25T10:37:33.000Z,6.7
2022-11-25T10:38:45.000Z,2.5
2022-11-25T10:39:57.000Z,6.7
2022-11-25T10:41:09.000Z,2.5
2022-11-25T10:42:21.000Z,5.4
2022-11-25T10:43:34.000Z,5.1
2022-11-25T10:44:46.000Z,6.1
2022-11-25T10:45:58.000Z,3.8
2022-11-25T10:47:10.000Z,5.4
2022-11-25T10:49:34.000Z,3.5
2022-11-25T10:50:47.000Z,5.4
2022-11-25T10:51:58.000Z,2.9
2022-11-25T10:53:10.000Z,5.4
2022-11-25T10:54:22.000Z,7.4
2022-11-25T10:55:08.000Z,7.4
2022-11-25T10:55:34.000Z,5.4
2022-11-25T10:56:47.000Z,5.4
2022-11-25T10:57:59.000Z,5.4
2022-11-25T10:59:10.000Z,5.8
2022-11-25T11:00:21.000Z,5.8
2022-11-25T11:01:32.000Z,5.4
2022-11-25T11:02:44.000Z,3.2
2022-11-25T11:03:56.000Z,5.1
2022-11-25T11:05:08.000Z,3.5
2022-11-25T11:06:20.000Z,5.8
2022-11-25T11:07:32.000Z,5.4
2022-11-25T11:08:44.000Z,7.7
2022-11-25T11:09:57.000Z,4.5
2022-11-25T11:11:09.000Z,5.4
2022-11-25T11:12:21.000Z,3.2
2022-11-25T11:13:33.000Z,3.5
2022-11-25T11:14:45.000Z,6.4
2022-11-25T11:15:58.000Z,4.5
2022-11-25T11:17:10.000Z,6.1
2022-11-25T11:18:21.000Z,3.2
2022-11-25T11:19:33.000Z,5.4
2022-11-25T11:20:45.000Z,6.1
2022-11-25T11:21:58.000Z,5.8
2022-11-25T11:23:10.000Z,5.8
2022-11-25T11:24:22.000Z,5.8
2022-11-25T11:25:34.000Z,5.8
2022-11-25T11:26:45.000Z,5.8
2022-11-25T11:27:57.000Z,6.1
2022-11-25T11:29:09.000Z,4.5
2022-11-25T11:30:21.000Z,5.8
2022-11-25T11:32:45.000Z,4.5
2022-11-25T11:33:57.000Z,4.1
2022-11-25T11:35:10.000Z,4.8
2022-11-25T11:36:22.000Z,6.4
2022-11-25T11:37:34.000Z,6.7
2022-11-25T11:38:19.000Z,6.1
2022-11-25T11:38:46.000Z,6.1
2022-11-25T11:39:58.000Z,6.1
2022-11-25T11:41:11.000Z,6.1
2022-11-25T11:42:23.000Z,4.8
2022-11-25T11:43:34.000Z,6.7
2022-11-25T11:45:58.000Z,6.1
2022-11-25T11:47:11.000Z,6.7
2022-11-25T11:48:23.000Z,6.4
2022-11-25T11:49:35.000Z,8.3
2022-11-25T11:50:47.000Z,4.1
2022-11-25T11:51:32.754Z,6.7
2022-11-25T11:51:58.000Z,6.7
2022-11-25T11:53:10.000Z,6.7
2022-11-25T11:54:22.000Z,6.7
2022-11-25T11:55:34.000Z,8
2022-11-25T11:56:46.000Z,6.1
2022-11-25T11:57:58.000Z,6.7
2022-11-25T11:59:10.000Z,7.4
2022-11-25T12:00:23.000Z,7
2022-11-25T12:01:35.000Z,6.7
2022-11-25T12:02:47.000Z,6.7
2022-11-25T12:03:59.000Z,7.4
2022-11-25T12:05:11.000Z,7
2022-11-25T12:06:24.000Z,5.1
2022-11-25T12:07:36.000Z,5.1
2022-11-25T12:09:59.000Z,6.7
2022-11-25T12:11:11.000Z,7
2022-11-25T12:12:23.000Z,8.3
2022-11-25T12:13:36.000Z,6.4
2022-11-25T12:14:48.000Z,6.7
2022-11-25T12:15:34.000Z,6.1
2022-11-25T12:16:00.000Z,6.7
2022-11-25T12:17:11.000Z,6.7
2022-11-25T12:18:22.000Z,7
2022-11-25T12:19:34.000Z,7
2022-11-25T12:20:45.000Z,8
2022-11-25T12:21:56.000Z,6.7
2022-11-25T12:23:08.000Z,9
2022-11-25T12:24:19.000Z,8.7
2022-11-25T12:25:31.000Z,8.3
2022-11-25T12:26:43.000Z,9.3
2022-11-25T12:27:55.000Z,7
2022-11-25T12:29:07.000Z,8.3
2022-11-25T12:30:19.000Z,9
2022-11-25T12:31:32.000Z,9
2022-11-25T12:32:44.000Z,6.7
2022-11-25T12:33:56.000Z,7
2022-11-25T12:35:08.000Z,8.3
2022-11-25T12:36:20.000Z,4.1
2022-11-25T12:37:32.000Z,6.7
2022-11-25T12:38:45.000Z,7
2022-11-25T12:39:57.000Z,7
2022-11-25T12:41:09.000Z,6.7
2022-11-25T12:42:20.000Z,5.1
2022-11-25T12:43:32.000Z,6.7
2022-11-25T12:44:45.000Z,9.3
2022-11-25T12:45:57.000Z,6.4
2022-11-25T12:47:08.000Z,6.7
2022-11-25T12:48:19.000Z,6.7
2022-11-25T12:49:31.000Z,10.9
2022-11-25T12:50:44.000Z,7
2022-11-25T12:51:56.000Z,9.3
2022-11-25T12:53:08.000Z,5.1
2022-11-25T12:54:20.000Z,7.4
2022-11-25T12:55:32.000Z,4.1
2022-11-25T12:56:45.000Z,7
2022-11-25T12:57:57.000Z,6.7
2022-11-25T12:59:09.000Z,7
2022-11-25T13:00:21.000Z,7
2022-11-25T13:01:33.000Z,6.7
2022-11-25T13:03:57.000Z,6.7
2022-11-25T13:05:09.000Z,8.3
2022-11-25T13:06:21.000Z,7.7
2022-11-25T13:07:33.000Z,7
2022-11-25T13:08:45.000Z,9
2022-11-25T13:09:32.105Z,6.7
2022-11-25T13:09:58.000Z,7
2022-11-25T13:11:10.000Z,7.4
2022-11-25T13:12:21.000Z,7.4
2022-11-25T13:13:32.000Z,8.3
2022-11-25T13:14:44.000Z,6.7
2022-11-25T13:15:57.000Z,6.4
2022-11-25T13:17:09.000Z,7.4
2022-11-25T13:18:21.000Z,5.8
2022-11-25T13:19:33.000Z,7
2022-11-25T13:20:45.000Z,8.7
2022-11-25T13:21:57.000Z,7.4
2022-11-25T13:23:10.000Z,6.7
2022-11-25T13:24:22.000Z,7
2022-11-25T13:25:34.000Z,6.7
2022-11-25T13:26:46.000Z,7.4
2022-11-25T13:27:58.000Z,9.3
2022-11-25T13:29:10.000Z,7
2022-11-25T13:30:22.000Z,7.4
2022-11-25T13:31:34.000Z,7
2022-11-25T13:32:46.000Z,7
2022-11-25T13:33:58.000Z,6.7
2022-11-25T13:35:11.000Z,4.8
2022-11-25T13:36:23.000Z,7
2022-11-25T13:37:34.000Z,6.4
2022-11-25T13:38:45.000Z,6.7
2022-11-25T13:39:57.000Z,7
2022-11-25T13:41:09.000Z,7
2022-11-25T13:42:20.000Z,7.4
2022-11-25T13:43:31.000Z,7
2022-11-25T13:44:42.000Z,6.7
2022-11-25T13:45:54.000Z,7
2022-11-25T13:47:06.000Z,6.7
2022-11-25T13:48:19.000Z,7
2022-11-25T13:49:31.000Z,6.7
2022-11-25T13:50:43.000Z,6.7
2022-11-25T13:51:55.000Z,6.7
2022-11-25T13:53:07.000Z,6.7
2022-11-25T13:54:20.000Z,6.7
2022-11-25T13:56:44.000Z,6.7
2022-11-25T13:57:56.000Z,6.4
2022-11-25T13:59:08.000Z,7
2022-11-25T14:00:20.000Z,7
2022-11-25T14:01:32.000Z,6.4
2022-11-25T14:02:18.489Z,5.1
2022-11-25T14:02:44.000Z,9
2022-11-25T14:03:56.000Z,6.7
2022-11-25T14:05:08.000Z,4.1
2022-11-25T14:06:20.000Z,6.7
2022-11-25T14:07:33.000Z,7
2022-11-25T14:08:44.000Z,4.1
2022-11-25T14:11:06.000Z,6.7
2022-11-25T14:12:17.000Z,8.7
2022-11-25T14:13:30.000Z,9.3
2022-11-25T14:14:42.000Z,8.7
2022-11-25T14:15:54.000Z,9
2022-11-25T14:16:41.779Z,6.7
2022-11-25T14:17:06.000Z,8.7
2022-11-25T14:18:18.000Z,6.4
2022-11-25T14:19:31.000Z,6.1
2022-11-25T14:20:43.000Z,4.1
2022-11-25T14:21:55.000Z,6.7
2022-11-25T14:23:07.000Z,4.1
2022-11-25T14:24:19.000Z,4.1
2022-11-25T14:25:32.000Z,7
2022-11-25T14:26:44.000Z,6.4
2022-11-25T14:27:55.000Z,9
2022-11-25T14:29:07.000Z,6.4
2022-11-25T14:30:19.000Z,6.7
2022-11-25T14:31:31.000Z,6.7
2022-11-25T14:32:44.000Z,6.1
2022-11-25T14:33:56.000Z,8.7
2022-11-25T14:35:08.000Z,6.1
2022-11-25T14:36:19.000Z,6.1
2022-11-25T14:37:30.000Z,3.5
2022-11-25T14:38:42.000Z,6.4
2022-11-25T14:39:53.000Z,6.1
2022-11-25T14:41:05.000Z,4.1
2022-11-25T14:42:17.000Z,7
2022-11-25T14:43:29.000Z,5.4
2022-11-25T14:44:42.000Z,6.7
2022-11-25T14:45:54.000Z,9
2022-11-25T14:48:18.000Z,6.4
2022-11-25T14:49:30.000Z,6.4
2022-11-25T14:50:43.000Z,8.7
2022-11-25T14:51:55.000Z,3.5
2022-11-25T14:53:07.000Z,6.1
2022-11-25T14:53:52.700Z,5.4
2022-11-25T14:54:19.000Z,3.8
2022-11-25T14:55:30.000Z,9.3
2022-11-25T14:56:42.000Z,4.5
2022-11-25T14:57:55.000Z,5.4
2022-11-25T14:59:07.000Z,6.1
2022-11-25T15:00:19.000Z,2.5
2022-11-25T15:01:31.000Z,2.9
2022-11-25T15:02:43.000Z,5.1
2022-11-25T15:03:55.000Z,6.1
2022-11-25T15:05:06.000Z,10.3
2022-11-25T15:06:17.000Z,6.7
2022-11-25T15:07:28.000Z,5.4
2022-11-25T15:08:40.000Z,6.1
2022-11-25T15:09:53.000Z,6.4
2022-11-25T15:11:05.000Z,9.9
2022-11-25T15:12:17.000Z,7.4
2022-11-25T15:13:29.000Z,9.6
2022-11-25T15:14:41.000Z,2.5
2022-11-25T15:15:53.000Z,2.5
2022-11-25T15:17:06.000Z,9
2022-11-25T15:18:18.000Z,3.2
2022-11-25T15:19:30.000Z,6.1
2022-11-25T15:20:42.000Z,6.1
2022-11-25T15:23:07.000Z,1.2
2022-11-25T15:24:18.000Z,6.4
2022-11-25T15:25:30.000Z,2.9
2022-11-25T15:26:42.000Z,3.2
2022-11-25T15:27:54.000Z,6.4
2022-11-25T15:28:41.158Z,6.1
2022-11-25T15:29:07.000Z,4.1
2022-11-25T15:30:19.000Z,7
2022-11-25T15:31:30.000Z,6.1
2022-11-25T15:32:41.000Z,9.9
2022-11-25T15:33:52.000Z,6.1
2022-11-25T15:35:04.000Z,6.1
2022-11-25T15:36:16.000Z,3.5
2022-11-25T15:37:28.000Z,8.7
2022-11-25T15:38:40.000Z,9
2022-11-25T15:39:52.000Z,4.1
2022-11-25T15:41:04.000Z,9.6
2022-11-25T15:42:17.000Z,8.3
2022-11-25T15:43:29.000Z,5.8
2022-11-25T15:44:41.000Z,5.8
2022-11-25T15:45:53.000Z,1.9
2022-11-25T15:47:05.000Z,2.9
2022-11-25T15:48:18.000Z,6.1
2022-11-25T15:49:30.000Z,5.4
2022-11-25T15:50:41.000Z,2.2
2022-11-25T15:51:53.000Z,5.8
2022-11-25T15:53:05.000Z,2.5
2022-11-25T15:54:17.000Z,5.4
2022-11-25T15:55:30.000Z,5.8
2022-11-25T15:56:42.000Z,9.3
2022-11-25T15:57:54.000Z,9.3
2022-11-25T15:59:05.000Z,9.9
2022-11-25T16:00:17.000Z,5.4
2022-11-25T16:01:29.000Z,1.9
2022-11-25T16:02:41.000Z,2.9
2022-11-25T16:03:53.000Z,5.1
2022-11-25T16:05:05.000Z,3.8
2022-11-25T16:06:17.000Z,5.4
2022-11-25T16:07:30.000Z,9.9
2022-11-25T16:08:42.000Z,3.5
2022-11-25T16:09:54.000Z,1.2
2022-11-25T16:11:06.000Z,6.1
2022-11-25T16:12:18.000Z,1.2
2022-11-25T16:13:30.000Z,6.1
2022-11-25T16:14:43.000Z,4.1
2022-11-25T16:15:55.000Z,8
2022-11-25T16:17:06.000Z,5.1
2022-11-25T16:18:18.000Z,10.3
2022-11-25T16:19:30.000Z,11.9
2022-11-25T16:20:43.000Z,5.4
2022-11-25T16:21:55.000Z,5.8
2022-11-25T16:23:07.000Z,5.4
2022-11-25T16:24:18.000Z,6.4
2022-11-25T16:25:29.000Z,5.4
2022-11-25T16:26:41.000Z,5.1
2022-11-25T16:27:52.000Z,5.1
2022-11-25T16:29:04.000Z,5.8
2022-11-25T16:30:16.000Z,10.6
2022-11-25T16:31:28.000Z,10.3
2022-11-25T16:32:41.000Z,1.9
2022-11-25T16:33:53.000Z,5.8
2022-11-25T16:35:05.000Z,1.9
2022-11-25T16:36:17.000Z,1.2
2022-11-25T16:37:29.000Z,4.8
2022-11-25T16:38:41.000Z,2.2
2022-11-25T16:39:54.000Z,8.7
2022-11-25T16:41:06.000Z,5.4